sensor_id;sensor_type;location;lat;lon;timestamp;temperature;humidity
37998;DHT22;24079;51.824;4.682;2023-05-10T00:00:32;13.40;99.90
37998;DHT22;24079;51.824;4.682;2023-05-10T00:02:58;13.40;99.90
37998;DHT22;24079;51.824;4.682;2023-05-10T00:05:24;13.40;99.90
37998;DHT22;24079;51.824;4.682;2023-05-10T00:07:49;13.40;99.90
37998;DHT22;24079;51.824;4.682;2023-05-10T00:10:15;13.40;99.90
37998;DHT22;24079;51.824;4.682;2023-05-10T00:12:41;13.30;99.90
37998;DHT22;24079;51.824;4.682;2023-05-10T00:15:07;13.30;99.90
37998;DHT22;24079;51.824;4.682;2023-05-10T00:17:33;13.40;99.90
37998;DHT22;24079;51.824;4.682;2023-05-10T00:19:59;13.40;99.90
37998;DHT22;24079;51.824;4.682;2023-05-10T00:22:25;13.40;99.90
37998;DHT22;24079;51.824;4.682;2023-05-10T00:24:51;13.30;99.90
37998;DHT22;24079;51.824;4.682;2023-05-10T00:27:17;13.40;99.90
37998;DHT22;24079;51.824;4.682;2023-05-10T00:29:42;13.30;99.90
37998;DHT22;24079;51.824;4.682;2023-05-10T00:32:08;13.40;99.90
37998;DHT22;24079;51.824;4.682;2023-05-10T00:34:33;13.40;99.90
37998;DHT22;24079;51.824;4.682;2023-05-10T00:36:59;13.30;99.90
37998;DHT22;24079;51.824;4.682;2023-05-10T00:39:25;13.40;99.90
37998;DHT22;24079;51.824;4.682;2023-05-10T00:41:52;13.40;99.90
37998;DHT22;24079;51.824;4.682;2023-05-10T00:44:17;13.40;99.90
37998;DHT22;24079;51.824;4.682;2023-05-10T00:46:43;13.40;99.90
37998;DHT22;24079;51.824;4.682;2023-05-10T00:49:10;13.30;99.90
37998;DHT22;24079;51.824;4.682;2023-05-10T00:51:36;13.30;99.90
37998;DHT22;24079;51.824;4.682;2023-05-10T00:54:02;13.30;99.90
37998;DHT22;24079;51.824;4.682;2023-05-10T00:56:28;13.30;99.90
37998;DHT22;24079;51.824;4.682;2023-05-10T00:58:55;13.40;99.90
37998;DHT22;24079;51.824;4.682;2023-05-10T01:01:21;13.50;99.90
37998;DHT22;24079;51.824;4.682;2023-05-10T01:03:46;13.40;99.90
37998;DHT22;24079;51.824;4.682;2023-05-10T01:06:12;13.50;99.90
37998;DHT22;24079;51.824;4.682;2023-05-10T01:08:39;13.50;99.90
37998;DHT22;24079;51.824;4.682;2023-05-10T01:11:04;13.50;99.90
37998;DHT22;24079;51.824;4.682;2023-05-10T01:13:36;13.40;99.90
37998;DHT22;24079;51.824;4.682;2023-05-10T01:16:03;13.40;99.90
37998;DHT22;24079;51.824;4.682;2023-05-10T01:18:34;13.30;99.90
37998;DHT22;24079;51.824;4.682;2023-05-10T01:26:24;13.50;99.90
37998;DHT22;24079;51.824;4.682;2023-05-10T01:29:13;13.50;99.90
37998;DHT22;24079;51.824;4.682;2023-05-10T01:34:39;13.40;99.90
37998;DHT22;24079;51.824;4.682;2023-05-10T01:37:12;13.40;99.90
37998;DHT22;24079;51.824;4.682;2023-05-10T01:39:45;13.40;99.90
37998;DHT22;24079;51.824;4.682;2023-05-10T01:42:25;13.40;99.90
37998;DHT22;24079;51.824;4.682;2023-05-10T01:45:02;13.50;99.90
37998;DHT22;24079;51.824;4.682;2023-05-10T01:47:54;13.50;99.90
37998;DHT22;24079;51.824;4.682;2023-05-10T01:50:27;13.50;99.90
37998;DHT22;24079;51.824;4.682;2023-05-10T01:52:56;13.40;99.90
37998;DHT22;24079;51.824;4.682;2023-05-10T01:55:25;13.40;99.90
37998;DHT22;24079;51.824;4.682;2023-05-10T01:57:55;13.50;99.90
37998;DHT22;24079;51.824;4.682;2023-05-10T02:00:23;13.60;99.90
37998;DHT22;24079;51.824;4.682;2023-05-10T02:02:49;13.50;99.90
37998;DHT22;24079;51.824;4.682;2023-05-10T02:05:17;13.60;99.90
37998;DHT22;24079;51.824;4.682;2023-05-10T02:07:43;13.60;99.90
37998;DHT22;24079;51.824;4.682;2023-05-10T02:10:10;13.50;99.90
37998;DHT22;24079;51.824;4.682;2023-05-10T02:12:40;13.50;99.90
37998;DHT22;24079;51.824;4.682;2023-05-10T02:15:08;13.60;99.90
37998;DHT22;24079;51.824;4.682;2023-05-10T02:17:35;13.60;99.90
37998;DHT22;24079;51.824;4.682;2023-05-10T02:20:03;13.60;99.90
37998;DHT22;24079;51.824;4.682;2023-05-10T02:22:30;13.60;99.90
37998;DHT22;24079;51.824;4.682;2023-05-10T02:24:58;13.60;99.90
37998;DHT22;24079;51.824;4.682;2023-05-10T02:27:24;13.60;99.90
37998;DHT22;24079;51.824;4.682;2023-05-10T02:29:51;13.60;99.90
37998;DHT22;24079;51.824;4.682;2023-05-10T02:32:17;13.60;99.90
37998;DHT22;24079;51.824;4.682;2023-05-10T02:34:44;13.70;99.90
37998;DHT22;24079;51.824;4.682;2023-05-10T02:37:13;13.70;99.90
37998;DHT22;24079;51.824;4.682;2023-05-10T02:39:40;13.60;99.90
37998;DHT22;24079;51.824;4.682;2023-05-10T02:42:14;13.70;99.90
37998;DHT22;24079;51.824;4.682;2023-05-10T02:44:41;13.70;99.90
37998;DHT22;24079;51.824;4.682;2023-05-10T02:47:07;13.70;99.90
37998;DHT22;24079;51.824;4.682;2023-05-10T02:49:33;13.60;99.90
37998;DHT22;24079;51.824;4.682;2023-05-10T02:52:01;13.70;99.90
37998;DHT22;24079;51.824;4.682;2023-05-10T02:54:33;13.60;99.90
37998;DHT22;24079;51.824;4.682;2023-05-10T02:57:00;13.60;99.90
37998;DHT22;24079;51.824;4.682;2023-05-10T02:59:27;13.60;99.90
37998;DHT22;24079;51.824;4.682;2023-05-10T03:01:52;13.70;99.90
37998;DHT22;24079;51.824;4.682;2023-05-10T03:04:18;13.60;99.90
37998;DHT22;24079;51.824;4.682;2023-05-10T03:06:43;13.60;99.90
37998;DHT22;24079;51.824;4.682;2023-05-10T03:09:10;13.60;99.90
37998;DHT22;24079;51.824;4.682;2023-05-10T03:11:53;13.60;99.90
37998;DHT22;24079;51.824;4.682;2023-05-10T03:17:10;13.50;99.90
37998;DHT22;24079;51.824;4.682;2023-05-10T03:19:55;13.60;99.90
37998;DHT22;24079;51.824;4.682;2023-05-10T03:22:25;13.60;99.90
37998;DHT22;24079;51.824;4.682;2023-05-10T03:24:55;13.60;99.90
37998;DHT22;24079;51.824;4.682;2023-05-10T03:27:22;13.50;99.90
37998;DHT22;24079;51.824;4.682;2023-05-10T03:29:49;13.60;99.90
37998;DHT22;24079;51.824;4.682;2023-05-10T03:32:16;13.60;99.90
37998;DHT22;24079;51.824;4.682;2023-05-10T03:34:42;13.60;99.90
37998;DHT22;24079;51.824;4.682;2023-05-10T03:37:09;13.60;99.90
37998;DHT22;24079;51.824;4.682;2023-05-10T03:39:34;13.60;99.90
37998;DHT22;24079;51.824;4.682;2023-05-10T03:42:00;13.50;99.90
37998;DHT22;24079;51.824;4.682;2023-05-10T03:44:26;13.60;99.90
37998;DHT22;24079;51.824;4.682;2023-05-10T03:46:51;13.50;99.90
37998;DHT22;24079;51.824;4.682;2023-05-10T03:49:18;13.50;99.90
37998;DHT22;24079;51.824;4.682;2023-05-10T03:51:43;13.60;99.90
37998;DHT22;24079;51.824;4.682;2023-05-10T03:54:09;13.60;99.90
37998;DHT22;24079;51.824;4.682;2023-05-10T03:56:34;13.50;99.90
37998;DHT22;24079;51.824;4.682;2023-05-10T03:59:00;13.50;99.90
37998;DHT22;24079;51.824;4.682;2023-05-10T04:01:26;13.50;99.90
37998;DHT22;24079;51.824;4.682;2023-05-10T04:03:51;13.60;99.90
37998;DHT22;24079;51.824;4.682;2023-05-10T04:06:17;13.50;99.90
37998;DHT22;24079;51.824;4.682;2023-05-10T04:08:43;13.50;99.90
37998;DHT22;24079;51.824;4.682;2023-05-10T04:11:10;13.50;99.90
37998;DHT22;24079;51.824;4.682;2023-05-10T04:13:36;13.40;99.90
37998;DHT22;24079;51.824;4.682;2023-05-10T04:16:02;13.50;99.90
37998;DHT22;24079;51.824;4.682;2023-05-10T04:18:28;13.50;99.90
37998;DHT22;24079;51.824;4.682;2023-05-10T04:20:54;13.50;99.90
37998;DHT22;24079;51.824;4.682;2023-05-10T04:23:19;13.60;99.90
37998;DHT22;24079;51.824;4.682;2023-05-10T04:25:45;13.50;99.90
37998;DHT22;24079;51.824;4.682;2023-05-10T04:28:10;13.50;99.90
37998;DHT22;24079;51.824;4.682;2023-05-10T04:30:36;13.40;99.90
37998;DHT22;24079;51.824;4.682;2023-05-10T04:33:02;13.40;99.90
37998;DHT22;24079;51.824;4.682;2023-05-10T04:35:28;13.40;99.90
37998;DHT22;24079;51.824;4.682;2023-05-10T04:37:54;13.40;99.90
37998;DHT22;24079;51.824;4.682;2023-05-10T04:40:20;13.40;99.90
37998;DHT22;24079;51.824;4.682;2023-05-10T04:42:46;13.40;99.90
37998;DHT22;24079;51.824;4.682;2023-05-10T04:45:13;13.40;99.90
37998;DHT22;24079;51.824;4.682;2023-05-10T04:47:40;13.40;99.90
37998;DHT22;24079;51.824;4.682;2023-05-10T04:50:06;13.40;99.90
37998;DHT22;24079;51.824;4.682;2023-05-10T04:52:33;13.40;99.90
37998;DHT22;24079;51.824;4.682;2023-05-10T04:54:59;13.40;99.90
37998;DHT22;24079;51.824;4.682;2023-05-10T04:57:25;13.40;99.90
37998;DHT22;24079;51.824;4.682;2023-05-10T04:59:51;13.40;99.90
37998;DHT22;24079;51.824;4.682;2023-05-10T05:02:17;13.40;99.90
37998;DHT22;24079;51.824;4.682;2023-05-10T05:04:43;13.40;99.90
37998;DHT22;24079;51.824;4.682;2023-05-10T05:07:09;13.40;99.90
37998;DHT22;24079;51.824;4.682;2023-05-10T05:09:35;13.40;99.90
37998;DHT22;24079;51.824;4.682;2023-05-10T05:12:02;13.30;99.90
37998;DHT22;24079;51.824;4.682;2023-05-10T05:14:28;13.30;99.90
37998;DHT22;24079;51.824;4.682;2023-05-10T05:16:54;13.30;99.90
37998;DHT22;24079;51.824;4.682;2023-05-10T05:19:20;13.20;99.90
37998;DHT22;24079;51.824;4.682;2023-05-10T05:21:46;13.30;99.90
37998;DHT22;24079;51.824;4.682;2023-05-10T05:24:12;13.30;99.90
37998;DHT22;24079;51.824;4.682;2023-05-10T05:26:38;13.10;99.90
37998;DHT22;24079;51.824;4.682;2023-05-10T05:29:04;13.10;99.90
37998;DHT22;24079;51.824;4.682;2023-05-10T05:31:29;13.10;99.90
37998;DHT22;24079;51.824;4.682;2023-05-10T05:33:55;13.10;99.90
37998;DHT22;24079;51.824;4.682;2023-05-10T05:36:21;13.20;99.90
37998;DHT22;24079;51.824;4.682;2023-05-10T05:38:47;13.20;99.90
37998;DHT22;24079;51.824;4.682;2023-05-10T05:41:13;13.20;99.90
37998;DHT22;24079;51.824;4.682;2023-05-10T05:43:38;13.20;99.90
37998;DHT22;24079;51.824;4.682;2023-05-10T05:46:04;13.20;99.90
37998;DHT22;24079;51.824;4.682;2023-05-10T05:48:30;13.10;99.90
37998;DHT22;24079;51.824;4.682;2023-05-10T05:50:56;13.00;99.90
37998;DHT22;24079;51.824;4.682;2023-05-10T05:53:22;13.00;99.90
37998;DHT22;24079;51.824;4.682;2023-05-10T05:55:55;13.00;99.90
37998;DHT22;24079;51.824;4.682;2023-05-10T05:58:22;13.00;99.90
37998;DHT22;24079;51.824;4.682;2023-05-10T06:00:48;13.00;99.90
37998;DHT22;24079;51.824;4.682;2023-05-10T06:03:14;13.00;99.90
37998;DHT22;24079;51.824;4.682;2023-05-10T06:05:39;13.00;99.90
37998;DHT22;24079;51.824;4.682;2023-05-10T06:08:05;13.00;99.90
37998;DHT22;24079;51.824;4.682;2023-05-10T06:10:31;12.90;99.90
37998;DHT22;24079;51.824;4.682;2023-05-10T06:12:56;12.90;99.90
37998;DHT22;24079;51.824;4.682;2023-05-10T06:15:22;13.00;99.90
37998;DHT22;24079;51.824;4.682;2023-05-10T06:17:48;13.00;99.90
37998;DHT22;24079;51.824;4.682;2023-05-10T06:20:15;13.00;99.90
37998;DHT22;24079;51.824;4.682;2023-05-10T06:22:41;13.10;99.90
37998;DHT22;24079;51.824;4.682;2023-05-10T06:25:07;13.10;99.90
37998;DHT22;24079;51.824;4.682;2023-05-10T06:27:33;13.10;99.90
37998;DHT22;24079;51.824;4.682;2023-05-10T06:29:58;13.20;99.90
37998;DHT22;24079;51.824;4.682;2023-05-10T06:32:24;13.20;99.90
37998;DHT22;24079;51.824;4.682;2023-05-10T06:34:50;13.20;99.90
37998;DHT22;24079;51.824;4.682;2023-05-10T06:37:15;13.30;99.90
37998;DHT22;24079;51.824;4.682;2023-05-10T06:39:41;13.20;99.90
37998;DHT22;24079;51.824;4.682;2023-05-10T06:42:07;13.20;99.90
37998;DHT22;24079;51.824;4.682;2023-05-10T06:44:32;13.20;99.90
37998;DHT22;24079;51.824;4.682;2023-05-10T06:46:59;13.30;99.90
37998;DHT22;24079;51.824;4.682;2023-05-10T06:49:25;13.30;99.90
37998;DHT22;24079;51.824;4.682;2023-05-10T06:51:51;13.40;99.90
37998;DHT22;24079;51.824;4.682;2023-05-10T06:54:17;13.40;99.90
37998;DHT22;24079;51.824;4.682;2023-05-10T06:56:43;13.50;99.90
37998;DHT22;24079;51.824;4.682;2023-05-10T06:59:09;13.50;99.90
37998;DHT22;24079;51.824;4.682;2023-05-10T07:01:35;13.50;99.90
37998;DHT22;24079;51.824;4.682;2023-05-10T07:04:01;13.40;99.90
37998;DHT22;24079;51.824;4.682;2023-05-10T07:06:26;13.40;99.90
37998;DHT22;24079;51.824;4.682;2023-05-10T07:08:52;13.40;99.90
37998;DHT22;24079;51.824;4.682;2023-05-10T07:11:18;13.30;99.90
37998;DHT22;24079;51.824;4.682;2023-05-10T07:13:43;13.40;99.90
37998;DHT22;24079;51.824;4.682;2023-05-10T07:16:11;13.40;99.90
37998;DHT22;24079;51.824;4.682;2023-05-10T07:18:37;13.50;99.90
37998;DHT22;24079;51.824;4.682;2023-05-10T07:21:03;13.40;99.90
37998;DHT22;24079;51.824;4.682;2023-05-10T07:26:04;13.50;99.90
37998;DHT22;24079;51.824;4.682;2023-05-10T07:28:29;13.50;99.90
37998;DHT22;24079;51.824;4.682;2023-05-10T07:30:55;13.60;99.90
37998;DHT22;24079;51.824;4.682;2023-05-10T07:33:21;13.60;99.90
37998;DHT22;24079;51.824;4.682;2023-05-10T07:35:46;13.60;99.90
37998;DHT22;24079;51.824;4.682;2023-05-10T07:38:12;13.60;99.90
37998;DHT22;24079;51.824;4.682;2023-05-10T07:40:39;13.60;99.90
37998;DHT22;24079;51.824;4.682;2023-05-10T07:43:04;13.70;99.90
37998;DHT22;24079;51.824;4.682;2023-05-10T07:45:30;13.80;99.90
37998;DHT22;24079;51.824;4.682;2023-05-10T07:47:55;13.80;99.90
37998;DHT22;24079;51.824;4.682;2023-05-10T07:50:21;13.80;99.90
37998;DHT22;24079;51.824;4.682;2023-05-10T07:52:47;13.90;99.90
37998;DHT22;24079;51.824;4.682;2023-05-10T07:55:13;13.90;99.90
37998;DHT22;24079;51.824;4.682;2023-05-10T07:57:39;14.00;99.90
37998;DHT22;24079;51.824;4.682;2023-05-10T08:00:05;14.10;99.90
37998;DHT22;24079;51.824;4.682;2023-05-10T08:02:33;14.20;99.90
37998;DHT22;24079;51.824;4.682;2023-05-10T08:04:59;14.20;99.90
37998;DHT22;24079;51.824;4.682;2023-05-10T08:07:24;14.30;99.90
37998;DHT22;24079;51.824;4.682;2023-05-10T08:09:50;14.30;99.90
37998;DHT22;24079;51.824;4.682;2023-05-10T08:12:16;14.40;99.90
37998;DHT22;24079;51.824;4.682;2023-05-10T08:14:41;14.60;99.90
37998;DHT22;24079;51.824;4.682;2023-05-10T08:17:07;14.70;99.90
37998;DHT22;24079;51.824;4.682;2023-05-10T08:19:32;14.70;99.90
37998;DHT22;24079;51.824;4.682;2023-05-10T08:21:58;14.90;99.90
37998;DHT22;24079;51.824;4.682;2023-05-10T08:24:24;15.10;99.90
37998;DHT22;24079;51.824;4.682;2023-05-10T08:26:49;15.20;99.90
37998;DHT22;24079;51.824;4.682;2023-05-10T08:29:15;15.20;99.90
37998;DHT22;24079;51.824;4.682;2023-05-10T08:31:41;15.30;99.90
37998;DHT22;24079;51.824;4.682;2023-05-10T08:34:07;15.30;99.90
37998;DHT22;24079;51.824;4.682;2023-05-10T08:36:32;15.30;99.90
37998;DHT22;24079;51.824;4.682;2023-05-10T08:38:58;15.30;99.90
37998;DHT22;24079;51.824;4.682;2023-05-10T08:41:24;15.20;99.90
37998;DHT22;24079;51.824;4.682;2023-05-10T08:43:54;15.30;99.90
37998;DHT22;24079;51.824;4.682;2023-05-10T08:46:21;15.20;99.90
37998;DHT22;24079;51.824;4.682;2023-05-10T08:48:48;15.10;99.90
37998;DHT22;24079;51.824;4.682;2023-05-10T08:51:17;14.80;99.90
37998;DHT22;24079;51.824;4.682;2023-05-10T08:53:44;14.60;99.90
37998;DHT22;24079;51.824;4.682;2023-05-10T08:56:09;14.60;99.90
37998;DHT22;24079;51.824;4.682;2023-05-10T08:58:36;14.60;99.90
37998;DHT22;24079;51.824;4.682;2023-05-10T09:01:02;14.60;99.90
37998;DHT22;24079;51.824;4.682;2023-05-10T09:03:29;14.70;99.90
37998;DHT22;24079;51.824;4.682;2023-05-10T09:05:55;14.70;99.90
37998;DHT22;24079;51.824;4.682;2023-05-10T09:08:23;14.50;99.90
37998;DHT22;24079;51.824;4.682;2023-05-10T09:10:51;14.60;99.90
37998;DHT22;24079;51.824;4.682;2023-05-10T09:13:17;14.60;99.90
37998;DHT22;24079;51.824;4.682;2023-05-10T09:15:44;14.70;99.90
37998;DHT22;24079;51.824;4.682;2023-05-10T09:18:11;14.70;99.90
37998;DHT22;24079;51.824;4.682;2023-05-10T09:20:36;14.80;99.90
37998;DHT22;24079;51.824;4.682;2023-05-10T09:23:02;14.70;99.90
37998;DHT22;24079;51.824;4.682;2023-05-10T09:25:27;14.80;99.90
37998;DHT22;24079;51.824;4.682;2023-05-10T09:27:53;14.80;99.90
37998;DHT22;24079;51.824;4.682;2023-05-10T09:30:25;14.90;99.90
37998;DHT22;24079;51.824;4.682;2023-05-10T09:32:52;14.80;99.90
37998;DHT22;24079;51.824;4.682;2023-05-10T09:35:20;14.80;99.90
37998;DHT22;24079;51.824;4.682;2023-05-10T09:37:48;14.70;99.90
37998;DHT22;24079;51.824;4.682;2023-05-10T09:40:22;14.80;99.90
37998;DHT22;24079;51.824;4.682;2023-05-10T09:45:17;14.90;99.90
37998;DHT22;24079;51.824;4.682;2023-05-10T09:47:42;15.10;99.90
37998;DHT22;24079;51.824;4.682;2023-05-10T09:50:09;15.30;99.90
37998;DHT22;24079;51.824;4.682;2023-05-10T09:52:55;15.40;99.90
37998;DHT22;24079;51.824;4.682;2023-05-10T09:55:25;15.70;99.90
37998;DHT22;24079;51.824;4.682;2023-05-10T09:57:59;15.90;99.90
37998;DHT22;24079;51.824;4.682;2023-05-10T10:00:26;16.00;99.90
37998;DHT22;24079;51.824;4.682;2023-05-10T10:02:57;15.90;99.90
37998;DHT22;24079;51.824;4.682;2023-05-10T10:05:34;15.60;99.90
37998;DHT22;24079;51.824;4.682;2023-05-10T10:08:04;15.40;99.90
37998;DHT22;24079;51.824;4.682;2023-05-10T10:10:31;15.30;99.90
37998;DHT22;24079;51.824;4.682;2023-05-10T10:12:57;15.20;99.90
37998;DHT22;24079;51.824;4.682;2023-05-10T10:15:23;15.10;99.90
37998;DHT22;24079;51.824;4.682;2023-05-10T10:17:51;15.00;99.90
37998;DHT22;24079;51.824;4.682;2023-05-10T10:20:18;14.90;99.90
37998;DHT22;24079;51.824;4.682;2023-05-10T10:22:45;15.00;99.90
37998;DHT22;24079;51.824;4.682;2023-05-10T10:25:13;15.10;99.90
37998;DHT22;24079;51.824;4.682;2023-05-10T10:30:41;15.30;99.90
37998;DHT22;24079;51.824;4.682;2023-05-10T10:35:53;15.60;99.90
37998;DHT22;24079;51.824;4.682;2023-05-10T10:38:20;15.70;99.90
37998;DHT22;24079;51.824;4.682;2023-05-10T10:40:47;15.90;99.90
37998;DHT22;24079;51.824;4.682;2023-05-10T10:43:24;16.00;99.90
37998;DHT22;24079;51.824;4.682;2023-05-10T10:46:13;16.30;99.90
37998;DHT22;24079;51.824;4.682;2023-05-10T10:48:40;16.50;99.90
37998;DHT22;24079;51.824;4.682;2023-05-10T10:51:06;16.50;99.90
37998;DHT22;24079;51.824;4.682;2023-05-10T10:53:32;16.60;99.90
37998;DHT22;24079;51.824;4.682;2023-05-10T10:56:09;16.50;99.90
37998;DHT22;24079;51.824;4.682;2023-05-10T10:58:36;16.40;99.90
37998;DHT22;24079;51.824;4.682;2023-05-10T11:01:16;16.50;99.90
37998;DHT22;24079;51.824;4.682;2023-05-10T11:06:33;16.30;99.90
37998;DHT22;24079;51.824;4.682;2023-05-10T11:09:07;16.20;99.90
37998;DHT22;24079;51.824;4.682;2023-05-10T11:11:34;16.00;99.90
37998;DHT22;24079;51.824;4.682;2023-05-10T11:14:07;15.70;99.90
37998;DHT22;24079;51.824;4.682;2023-05-10T11:16:43;15.50;99.90
37998;DHT22;24079;51.824;4.682;2023-05-10T11:19:13;15.60;99.90
37998;DHT22;24079;51.824;4.682;2023-05-10T11:24:30;15.30;99.90
37998;DHT22;24079;51.824;4.682;2023-05-10T11:26:56;15.40;99.90
37998;DHT22;24079;51.824;4.682;2023-05-10T11:29:22;15.50;99.90
37998;DHT22;24079;51.824;4.682;2023-05-10T11:31:49;15.40;99.90
37998;DHT22;24079;51.824;4.682;2023-05-10T11:34:29;15.40;99.90
37998;DHT22;24079;51.824;4.682;2023-05-10T11:37:01;15.50;99.90
37998;DHT22;24079;51.824;4.682;2023-05-10T11:39:28;15.40;99.90
37998;DHT22;24079;51.824;4.682;2023-05-10T11:41:54;15.60;99.90
37998;DHT22;24079;51.824;4.682;2023-05-10T11:44:20;15.70;99.90
37998;DHT22;24079;51.824;4.682;2023-05-10T11:46:46;15.80;99.90
37998;DHT22;24079;51.824;4.682;2023-05-10T11:49:11;16.00;99.90
37998;DHT22;24079;51.824;4.682;2023-05-10T11:51:38;16.20;99.90
37998;DHT22;24079;51.824;4.682;2023-05-10T11:54:10;16.10;99.90
37998;DHT22;24079;51.824;4.682;2023-05-10T11:56:37;16.10;99.90
37998;DHT22;24079;51.824;4.682;2023-05-10T11:59:03;16.00;99.90
37998;DHT22;24079;51.824;4.682;2023-05-10T12:01:29;16.10;99.90
37998;DHT22;24079;51.824;4.682;2023-05-10T12:03:57;16.30;99.90
37998;DHT22;24079;51.824;4.682;2023-05-10T12:06:27;16.40;99.90
37998;DHT22;24079;51.824;4.682;2023-05-10T12:08:54;16.40;99.90
37998;DHT22;24079;51.824;4.682;2023-05-10T12:11:23;16.40;99.90
37998;DHT22;24079;51.824;4.682;2023-05-10T12:13:50;16.60;99.90
37998;DHT22;24079;51.824;4.682;2023-05-10T12:16:20;16.70;99.90
37998;DHT22;24079;51.824;4.682;2023-05-10T12:18:50;16.80;99.90
37998;DHT22;24079;51.824;4.682;2023-05-10T12:21:20;17.00;99.90
37998;DHT22;24079;51.824;4.682;2023-05-10T12:23:49;17.10;99.90
37998;DHT22;24079;51.824;4.682;2023-05-10T12:26:15;17.10;99.90
37998;DHT22;24079;51.824;4.682;2023-05-10T12:28:41;17.00;99.90
37998;DHT22;24079;51.824;4.682;2023-05-10T12:31:08;16.90;99.90
37998;DHT22;24079;51.824;4.682;2023-05-10T12:33:38;16.90;99.90
37998;DHT22;24079;51.824;4.682;2023-05-10T12:36:05;17.20;99.90
37998;DHT22;24079;51.824;4.682;2023-05-10T12:38:34;17.30;99.90
37998;DHT22;24079;51.824;4.682;2023-05-10T12:41:02;17.20;99.90
37998;DHT22;24079;51.824;4.682;2023-05-10T12:43:28;17.10;99.90
37998;DHT22;24079;51.824;4.682;2023-05-10T12:45:54;17.20;99.90
37998;DHT22;24079;51.824;4.682;2023-05-10T12:48:20;17.10;99.90
37998;DHT22;24079;51.824;4.682;2023-05-10T12:50:47;16.90;99.90
37998;DHT22;24079;51.824;4.682;2023-05-10T12:53:14;16.90;99.90
37998;DHT22;24079;51.824;4.682;2023-05-10T12:55:44;17.10;99.90
37998;DHT22;24079;51.824;4.682;2023-05-10T12:58:10;17.00;99.90
37998;DHT22;24079;51.824;4.682;2023-05-10T13:00:36;17.00;99.90
37998;DHT22;24079;51.824;4.682;2023-05-10T13:03:04;17.10;99.90
37998;DHT22;24079;51.824;4.682;2023-05-10T13:05:32;17.30;99.90
37998;DHT22;24079;51.824;4.682;2023-05-10T13:07:58;17.30;99.90
37998;DHT22;24079;51.824;4.682;2023-05-10T13:10:24;17.30;99.90
37998;DHT22;24079;51.824;4.682;2023-05-10T13:12:51;17.10;99.90
37998;DHT22;24079;51.824;4.682;2023-05-10T13:15:17;17.10;99.90
37998;DHT22;24079;51.824;4.682;2023-05-10T13:17:43;17.20;99.90
37998;DHT22;24079;51.824;4.682;2023-05-10T13:20:09;17.30;99.90
37998;DHT22;24079;51.824;4.682;2023-05-10T13:22:35;17.50;99.90
37998;DHT22;24079;51.824;4.682;2023-05-10T13:25:02;17.40;99.90
37998;DHT22;24079;51.824;4.682;2023-05-10T13:27:28;17.30;99.90
37998;DHT22;24079;51.824;4.682;2023-05-10T13:29:54;17.40;99.90
37998;DHT22;24079;51.824;4.682;2023-05-10T13:32:20;17.70;99.90
37998;DHT22;24079;51.824;4.682;2023-05-10T13:34:46;17.70;99.90
37998;DHT22;24079;51.824;4.682;2023-05-10T13:37:11;17.80;99.90
37998;DHT22;24079;51.824;4.682;2023-05-10T13:39:37;17.90;99.90
37998;DHT22;24079;51.824;4.682;2023-05-10T13:42:03;18.00;99.90
37998;DHT22;24079;51.824;4.682;2023-05-10T13:44:29;18.10;99.90
37998;DHT22;24079;51.824;4.682;2023-05-10T13:46:56;18.20;99.90
37998;DHT22;24079;51.824;4.682;2023-05-10T13:49:21;18.10;99.90
37998;DHT22;24079;51.824;4.682;2023-05-10T13:51:47;18.30;99.90
37998;DHT22;24079;51.824;4.682;2023-05-10T13:54:13;18.30;99.90
37998;DHT22;24079;51.824;4.682;2023-05-10T13:56:39;18.10;99.90
37998;DHT22;24079;51.824;4.682;2023-05-10T13:59:04;17.90;99.90
37998;DHT22;24079;51.824;4.682;2023-05-10T14:01:30;17.90;99.90
37998;DHT22;24079;51.824;4.682;2023-05-10T14:03:56;17.70;99.90
37998;DHT22;24079;51.824;4.682;2023-05-10T14:06:21;17.50;99.90
37998;DHT22;24079;51.824;4.682;2023-05-10T14:08:47;17.50;99.90
37998;DHT22;24079;51.824;4.682;2023-05-10T14:11:13;17.60;99.90
37998;DHT22;24079;51.824;4.682;2023-05-10T14:13:38;17.50;99.90
37998;DHT22;24079;51.824;4.682;2023-05-10T14:16:04;17.40;99.90
37998;DHT22;24079;51.824;4.682;2023-05-10T14:18:30;17.40;99.90
37998;DHT22;24079;51.824;4.682;2023-05-10T14:20:56;17.40;99.90
37998;DHT22;24079;51.824;4.682;2023-05-10T14:23:22;17.40;99.90
37998;DHT22;24079;51.824;4.682;2023-05-10T14:25:52;17.60;99.90
37998;DHT22;24079;51.824;4.682;2023-05-10T14:28:17;17.60;99.90
37998;DHT22;24079;51.824;4.682;2023-05-10T14:30:44;17.70;99.90
37998;DHT22;24079;51.824;4.682;2023-05-10T14:33:10;17.90;99.90
37998;DHT22;24079;51.824;4.682;2023-05-10T14:35:35;17.80;99.90
37998;DHT22;24079;51.824;4.682;2023-05-10T14:38:02;17.80;99.90
37998;DHT22;24079;51.824;4.682;2023-05-10T14:40:29;17.60;99.90
37998;DHT22;24079;51.824;4.682;2023-05-10T14:42:55;17.60;99.90
37998;DHT22;24079;51.824;4.682;2023-05-10T14:45:21;17.70;99.90
37998;DHT22;24079;51.824;4.682;2023-05-10T14:47:47;17.50;99.90
37998;DHT22;24079;51.824;4.682;2023-05-10T14:50:13;17.40;99.90
37998;DHT22;24079;51.824;4.682;2023-05-10T14:52:39;17.40;99.90
37998;DHT22;24079;51.824;4.682;2023-05-10T14:55:05;17.40;99.90
37998;DHT22;24079;51.824;4.682;2023-05-10T14:57:31;17.40;99.90
37998;DHT22;24079;51.824;4.682;2023-05-10T14:59:57;17.10;99.90
37998;DHT22;24079;51.824;4.682;2023-05-10T15:02:23;17.20;99.90
37998;DHT22;24079;51.824;4.682;2023-05-10T15:04:48;17.20;99.90
37998;DHT22;24079;51.824;4.682;2023-05-10T15:07:14;17.30;99.90
37998;DHT22;24079;51.824;4.682;2023-05-10T15:09:41;17.20;99.90
37998;DHT22;24079;51.824;4.682;2023-05-10T15:12:07;17.20;99.90
37998;DHT22;24079;51.824;4.682;2023-05-10T15:14:33;17.10;99.90
37998;DHT22;24079;51.824;4.682;2023-05-10T15:16:59;16.90;99.90
37998;DHT22;24079;51.824;4.682;2023-05-10T15:19:25;16.80;99.90
37998;DHT22;24079;51.824;4.682;2023-05-10T15:21:51;16.70;99.90
37998;DHT22;24079;51.824;4.682;2023-05-10T15:24:17;16.50;99.90
37998;DHT22;24079;51.824;4.682;2023-05-10T15:26:43;16.50;99.90
37998;DHT22;24079;51.824;4.682;2023-05-10T15:29:09;16.50;99.90
37998;DHT22;24079;51.824;4.682;2023-05-10T15:31:35;16.50;99.90
37998;DHT22;24079;51.824;4.682;2023-05-10T15:34:02;16.60;99.90
37998;DHT22;24079;51.824;4.682;2023-05-10T15:36:27;16.50;99.90
37998;DHT22;24079;51.824;4.682;2023-05-10T15:38:54;16.50;99.90
37998;DHT22;24079;51.824;4.682;2023-05-10T15:41:20;16.40;99.90
37998;DHT22;24079;51.824;4.682;2023-05-10T15:43:46;16.50;99.90
37998;DHT22;24079;51.824;4.682;2023-05-10T15:46:12;16.60;99.90
37998;DHT22;24079;51.824;4.682;2023-05-10T15:48:38;16.60;99.90
37998;DHT22;24079;51.824;4.682;2023-05-10T15:51:05;16.60;99.90
37998;DHT22;24079;51.824;4.682;2023-05-10T15:53:31;16.60;99.90
37998;DHT22;24079;51.824;4.682;2023-05-10T15:55:57;16.70;99.90